sensor_id;sensor_type;location;lat;lon;timestamp;P1;durP1;ratioP1;P2;durP2;ratioP2
63032;SDS011;49121;38.932;-9.018;2023-03-23T00:00:35;8.68;;;1.45;;
63032;SDS011;49121;38.932;-9.018;2023-03-23T00:02:36;2.22;;;1.15;;
63032;SDS011;49121;38.932;-9.018;2023-03-23T00:04:38;3.08;;;1.35;;
63032;SDS011;49121;38.932;-9.018;2023-03-23T00:06:38;5.00;;;1.15;;
63032;SDS011;49121;38.932;-9.018;2023-03-23T00:10:47;9.13;;;1.55;;
63032;SDS011;49121;38.932;-9.018;2023-03-23T00:13:07;9.63;;;1.30;;
63032;SDS011;49121;38.932;-9.018;2023-03-23T00:15:45;8.30;;;2.05;;
63032;SDS011;49121;38.932;-9.018;2023-03-23T00:17:48;4.35;;;1.15;;
63032;SDS011;49121;38.932;-9.018;2023-03-23T00:19:49;7.13;;;1.30;;
63032;SDS011;49121;38.932;-9.018;2023-03-23T00:21:50;6.03;;;1.20;;
63032;SDS011;49121;38.932;-9.018;2023-03-23T00:23:53;3.65;;;1.38;;
63032;SDS011;49121;38.932;-9.018;2023-03-23T00:25:55;4.55;;;1.13;;
63032;SDS011;49121;38.932;-9.018;2023-03-23T00:27:59;4.65;;;1.38;;
63032;SDS011;49121;38.932;-9.018;2023-03-23T00:30:00;3.13;;;1.45;;
63032;SDS011;49121;38.932;-9.018;2023-03-23T00:34:58;5.97;;;1.20;;
63032;SDS011;49121;38.932;-9.018;2023-03-23T00:39:56;4.57;;;1.48;;
63032;SDS011;49121;38.932;-9.018;2023-03-23T00:41:57;4.30;;;1.10;;
63032;SDS011;49121;38.932;-9.018;2023-03-23T00:44:00;3.08;;;1.08;;
63032;SDS011;49121;38.932;-9.018;2023-03-23T00:46:01;10.77;;;1.48;;
63032;SDS011;49121;38.932;-9.018;2023-03-23T00:48:08;13.20;;;1.55;;
63032;SDS011;49121;38.932;-9.018;2023-03-23T00:50:09;3.20;;;1.38;;
63032;SDS011;49121;38.932;-9.018;2023-03-23T00:52:14;4.90;;;1.20;;
63032;SDS011;49121;38.932;-9.018;2023-03-23T00:54:18;6.38;;;1.63;;
63032;SDS011;49121;38.932;-9.018;2023-03-23T00:56:39;2.25;;;0.88;;
63032;SDS011;49121;38.932;-9.018;2023-03-23T01:00:40;4.43;;;1.33;;
63032;SDS011;49121;38.932;-9.018;2023-03-23T01:02:41;4.57;;;1.17;;
63032;SDS011;49121;38.932;-9.018;2023-03-23T01:04:44;6.63;;;1.25;;
63032;SDS011;49121;38.932;-9.018;2023-03-23T01:06:47;3.50;;;1.17;;
63032;SDS011;49121;38.932;-9.018;2023-03-23T01:08:50;3.92;;;0.85;;
63032;SDS011;49121;38.932;-9.018;2023-03-23T01:11:01;3.60;;;0.93;;
63032;SDS011;49121;38.932;-9.018;2023-03-23T01:13:06;13.05;;;1.40;;
63032;SDS011;49121;38.932;-9.018;2023-03-23T01:15:08;5.55;;;1.50;;
63032;SDS011;49121;38.932;-9.018;2023-03-23T01:17:09;2.88;;;0.90;;
63032;SDS011;49121;38.932;-9.018;2023-03-23T01:19:10;4.38;;;1.40;;
63032;SDS011;49121;38.932;-9.018;2023-03-23T01:23:12;5.07;;;1.05;;
63032;SDS011;49121;38.932;-9.018;2023-03-23T01:25:13;2.70;;;1.00;;
63032;SDS011;49121;38.932;-9.018;2023-03-23T01:27:15;6.53;;;1.10;;
63032;SDS011;49121;38.932;-9.018;2023-03-23T01:29:15;3.83;;;1.20;;
63032;SDS011;49121;38.932;-9.018;2023-03-23T01:33:18;3.67;;;1.25;;
63032;SDS011;49121;38.932;-9.018;2023-03-23T01:37:57;7.13;;;1.20;;
63032;SDS011;49121;38.932;-9.018;2023-03-23T01:39:58;3.58;;;1.08;;
63032;SDS011;49121;38.932;-9.018;2023-03-23T01:46:10;4.03;;;1.35;;
63032;SDS011;49121;38.932;-9.018;2023-03-23T01:50:21;4.78;;;1.13;;
63032;SDS011;49121;38.932;-9.018;2023-03-23T01:52:25;5.50;;;1.27;;
63032;SDS011;49121;38.932;-9.018;2023-03-23T01:54:33;5.30;;;1.42;;
63032;SDS011;49121;38.932;-9.018;2023-03-23T01:56:41;3.65;;;1.50;;
63032;SDS011;49121;38.932;-9.018;2023-03-23T01:58:47;4.78;;;1.50;;
63032;SDS011;49121;38.932;-9.018;2023-03-23T02:00:48;6.75;;;1.65;;
63032;SDS011;49121;38.932;-9.018;2023-03-23T02:02:49;2.08;;;1.10;;
63032;SDS011;49121;38.932;-9.018;2023-03-23T02:04:57;1.73;;;1.10;;
63032;SDS011;49121;38.932;-9.018;2023-03-23T02:07:04;3.25;;;1.27;;
63032;SDS011;49121;38.932;-9.018;2023-03-23T02:09:06;2.67;;;1.35;;
63032;SDS011;49121;38.932;-9.018;2023-03-23T02:11:13;2.40;;;1.17;;
63032;SDS011;49121;38.932;-9.018;2023-03-23T02:13:20;6.18;;;1.45;;
63032;SDS011;49121;38.932;-9.018;2023-03-23T02:15:22;9.20;;;1.30;;
63032;SDS011;49121;38.932;-9.018;2023-03-23T02:24:40;2.67;;;1.38;;
63032;SDS011;49121;38.932;-9.018;2023-03-23T02:27:17;6.18;;;1.13;;
63032;SDS011;49121;38.932;-9.018;2023-03-23T02:32:16;2.22;;;1.10;;
63032;SDS011;49121;38.932;-9.018;2023-03-23T02:37:01;4.30;;;1.33;;
63032;SDS011;49121;38.932;-9.018;2023-03-23T02:41:12;5.45;;;1.58;;
63032;SDS011;49121;38.932;-9.018;2023-03-23T02:43:16;2.60;;;1.23;;
63032;SDS011;49121;38.932;-9.018;2023-03-23T02:45:25;5.13;;;1.23;;
63032;SDS011;49121;38.932;-9.018;2023-03-23T02:47:29;4.00;;;1.40;;
63032;SDS011;49121;38.932;-9.018;2023-03-23T02:49:31;4.85;;;1.50;;
63032;SDS011;49121;38.932;-9.018;2023-03-23T02:51:35;3.38;;;1.25;;
63032;SDS011;49121;38.932;-9.018;2023-03-23T02:53:39;9.95;;;1.80;;
63032;SDS011;49121;38.932;-9.018;2023-03-23T02:55:43;5.13;;;1.30;;
63032;SDS011;49121;38.932;-9.018;2023-03-23T02:57:50;3.20;;;1.98;;
63032;SDS011;49121;38.932;-9.018;2023-03-23T02:59:53;2.40;;;1.58;;
63032;SDS011;49121;38.932;-9.018;2023-03-23T03:01:58;7.20;;;2.65;;
63032;SDS011;49121;38.932;-9.018;2023-03-23T03:04:11;5.68;;;1.50;;
63032;SDS011;49121;38.932;-9.018;2023-03-23T03:08:46;7.88;;;1.40;;
63032;SDS011;49121;38.932;-9.018;2023-03-23T03:11:02;4.97;;;1.33;;
63032;SDS011;49121;38.932;-9.018;2023-03-23T03:13:11;4.90;;;1.67;;
63032;SDS011;49121;38.932;-9.018;2023-03-23T03:15:24;7.35;;;1.30;;
63032;SDS011;49121;38.932;-9.018;2023-03-23T03:17:29;5.10;;;1.33;;
63032;SDS011;49121;38.932;-9.018;2023-03-23T03:19:32;5.50;;;1.27;;
63032;SDS011;49121;38.932;-9.018;2023-03-23T03:21:39;6.70;;;1.35;;
63032;SDS011;49121;38.932;-9.018;2023-03-23T03:23:43;2.13;;;1.55;;
63032;SDS011;49121;38.932;-9.018;2023-03-23T03:25:50;4.38;;;1.33;;
63032;SDS011;49121;38.932;-9.018;2023-03-23T03:28:01;7.07;;;1.45;;
63032;SDS011;49121;38.932;-9.018;2023-03-23T03:30:14;10.93;;;1.55;;
63032;SDS011;49121;38.932;-9.018;2023-03-23T03:32:20;2.85;;;1.30;;
63032;SDS011;49121;38.932;-9.018;2023-03-23T03:34:25;5.72;;;1.92;;
63032;SDS011;49121;38.932;-9.018;2023-03-23T03:36:30;1.98;;;1.30;;
63032;SDS011;49121;38.932;-9.018;2023-03-23T03:38:45;5.03;;;1.20;;
63032;SDS011;49121;38.932;-9.018;2023-03-23T03:40:48;5.93;;;1.60;;
63032;SDS011;49121;38.932;-9.018;2023-03-23T03:42:50;5.55;;;2.30;;
63032;SDS011;49121;38.932;-9.018;2023-03-23T03:44:51;4.15;;;1.05;;
63032;SDS011;49121;38.932;-9.018;2023-03-23T03:46:56;11.50;;;1.45;;
63032;SDS011;49121;38.932;-9.018;2023-03-23T03:48:58;2.50;;;1.30;;
63032;SDS011;49121;38.932;-9.018;2023-03-23T03:51:01;4.93;;;1.40;;
63032;SDS011;49121;38.932;-9.018;2023-03-23T03:53:05;7.22;;;1.40;;
63032;SDS011;49121;38.932;-9.018;2023-03-23T03:55:12;7.43;;;1.48;;
63032;SDS011;49121;38.932;-9.018;2023-03-23T03:57:16;2.67;;;1.23;;
63032;SDS011;49121;38.932;-9.018;2023-03-23T03:59:20;13.43;;;1.90;;
63032;SDS011;49121;38.932;-9.018;2023-03-23T04:01:39;7.88;;;1.95;;
63032;SDS011;49121;38.932;-9.018;2023-03-23T04:03:40;3.63;;;1.27;;
63032;SDS011;49121;38.932;-9.018;2023-03-23T04:05:59;9.07;;;1.73;;
63032;SDS011;49121;38.932;-9.018;2023-03-23T04:08:00;4.07;;;1.42;;
63032;SDS011;49121;38.932;-9.018;2023-03-23T04:10:05;5.85;;;1.52;;
63032;SDS011;49121;38.932;-9.018;2023-03-23T04:12:08;3.95;;;1.42;;
63032;SDS011;49121;38.932;-9.018;2023-03-23T04:14:32;11.05;;;1.95;;
63032;SDS011;49121;38.932;-9.018;2023-03-23T04:16:33;1.90;;;1.20;;
63032;SDS011;49121;38.932;-9.018;2023-03-23T04:18:36;2.38;;;1.15;;
63032;SDS011;49121;38.932;-9.018;2023-03-23T04:20:38;1.55;;;1.02;;
63032;SDS011;49121;38.932;-9.018;2023-03-23T04:24:39;8.35;;;1.30;;
63032;SDS011;49121;38.932;-9.018;2023-03-23T04:26:44;2.72;;;0.95;;
63032;SDS011;49121;38.932;-9.018;2023-03-23T04:28:55;4.00;;;1.45;;
63032;SDS011;49121;38.932;-9.018;2023-03-23T04:31:16;4.88;;;1.30;;
63032;SDS011;49121;38.932;-9.018;2023-03-23T04:33:23;4.95;;;1.05;;
63032;SDS011;49121;38.932;-9.018;2023-03-23T04:35:27;4.18;;;1.98;;
63032;SDS011;49121;38.932;-9.018;2023-03-23T04:37:49;6.75;;;1.27;;
63032;SDS011;49121;38.932;-9.018;2023-03-23T04:39:53;5.88;;;1.35;;
63032;SDS011;49121;38.932;-9.018;2023-03-23T04:42:00;7.88;;;1.20;;
63032;SDS011;49121;38.932;-9.018;2023-03-23T04:44:21;6.78;;;1.30;;
63032;SDS011;49121;38.932;-9.018;2023-03-23T04:46:30;5.78;;;1.63;;
63032;SDS011;49121;38.932;-9.018;2023-03-23T04:48:37;3.40;;;1.13;;
63032;SDS011;49121;38.932;-9.018;2023-03-23T04:50:52;7.18;;;1.40;;
63032;SDS011;49121;38.932;-9.018;2023-03-23T04:52:58;5.68;;;1.13;;
63032;SDS011;49121;38.932;-9.018;2023-03-23T04:55:05;9.48;;;1.50;;
63032;SDS011;49121;38.932;-9.018;2023-03-23T04:57:11;2.45;;;1.20;;
63032;SDS011;49121;38.932;-9.018;2023-03-23T04:59:17;3.90;;;1.50;;
63032;SDS011;49121;38.932;-9.018;2023-03-23T05:01:25;6.45;;;1.77;;
63032;SDS011;49121;38.932;-9.018;2023-03-23T05:03:44;3.50;;;1.27;;
63032;SDS011;49121;38.932;-9.018;2023-03-23T05:05:45;4.85;;;1.42;;
63032;SDS011;49121;38.932;-9.018;2023-03-23T05:07:52;7.38;;;1.30;;
63032;SDS011;49121;38.932;-9.018;2023-03-23T05:09:56;9.48;;;1.70;;
63032;SDS011;49121;38.932;-9.018;2023-03-23T05:12:04;4.47;;;1.58;;
63032;SDS011;49121;38.932;-9.018;2023-03-23T05:14:27;2.78;;;1.30;;
63032;SDS011;49121;38.932;-9.018;2023-03-23T05:18:44;5.15;;;1.50;;
63032;SDS011;49121;38.932;-9.018;2023-03-23T05:20:49;5.22;;;1.40;;
63032;SDS011;49121;38.932;-9.018;2023-03-23T05:22:54;7.05;;;1.60;;
63032;SDS011;49121;38.932;-9.018;2023-03-23T05:25:02;4.47;;;1.88;;
63032;SDS011;49121;38.932;-9.018;2023-03-23T05:27:08;7.25;;;1.27;;
63032;SDS011;49121;38.932;-9.018;2023-03-23T05:29:13;2.97;;;1.20;;
63032;SDS011;49121;38.932;-9.018;2023-03-23T05:31:22;3.30;;;1.52;;
63032;SDS011;49121;38.932;-9.018;2023-03-23T05:33:24;7.22;;;1.42;;
63032;SDS011;49121;38.932;-9.018;2023-03-23T05:35:45;6.45;;;1.50;;
63032;SDS011;49121;38.932;-9.018;2023-03-23T05:37:48;4.97;;;1.73;;
63032;SDS011;49121;38.932;-9.018;2023-03-23T05:39:49;6.80;;;2.10;;
63032;SDS011;49121;38.932;-9.018;2023-03-23T05:41:53;6.05;;;1.58;;
63032;SDS011;49121;38.932;-9.018;2023-03-23T05:43:55;4.80;;;1.80;;
63032;SDS011;49121;38.932;-9.018;2023-03-23T05:46:19;2.63;;;1.55;;
63032;SDS011;49121;38.932;-9.018;2023-03-23T05:48:21;3.83;;;1.30;;
63032;SDS011;49121;38.932;-9.018;2023-03-23T05:50:22;5.40;;;1.52;;
63032;SDS011;49121;38.932;-9.018;2023-03-23T05:52:22;2.38;;;1.60;;
63032;SDS011;49121;38.932;-9.018;2023-03-23T05:54:25;8.10;;;1.73;;
63032;SDS011;49121;38.932;-9.018;2023-03-23T05:56:27;2.40;;;1.55;;
63032;SDS011;49121;38.932;-9.018;2023-03-23T05:58:44;1.98;;;1.25;;
63032;SDS011;49121;38.932;-9.018;2023-03-23T06:00:44;2.53;;;1.35;;
63032;SDS011;49121;38.932;-9.018;2023-03-23T06:02:56;6.38;;;1.52;;
63032;SDS011;49121;38.932;-9.018;2023-03-23T06:05:05;8.90;;;2.00;;
63032;SDS011;49121;38.932;-9.018;2023-03-23T06:07:09;3.97;;;1.85;;
63032;SDS011;49121;38.932;-9.018;2023-03-23T06:09:18;6.15;;;1.90;;
63032;SDS011;49121;38.932;-9.018;2023-03-23T06:11:39;4.95;;;1.35;;
63032;SDS011;49121;38.932;-9.018;2023-03-23T06:14:00;4.82;;;1.60;;
63032;SDS011;49121;38.932;-9.018;2023-03-23T06:16:02;10.50;;;3.05;;
63032;SDS011;49121;38.932;-9.018;2023-03-23T06:18:18;2.92;;;1.77;;
63032;SDS011;49121;38.932;-9.018;2023-03-23T06:20:45;6.90;;;1.80;;
63032;SDS011;49121;38.932;-9.018;2023-03-23T06:23:15;9.10;;;2.47;;
63032;SDS011;49121;38.932;-9.018;2023-03-23T06:25:16;5.85;;;1.98;;
63032;SDS011;49121;38.932;-9.018;2023-03-23T06:29:19;9.68;;;2.33;;
63032;SDS011;49121;38.932;-9.018;2023-03-23T06:31:26;6.68;;;2.13;;
63032;SDS011;49121;38.932;-9.018;2023-03-23T06:33:28;8.55;;;3.13;;
63032;SDS011;49121;38.932;-9.018;2023-03-23T06:35:47;5.30;;;2.17;;
63032;SDS011;49121;38.932;-9.018;2023-03-23T06:38:07;6.63;;;2.22;;
63032;SDS011;49121;38.932;-9.018;2023-03-23T06:40:16;5.47;;;3.50;;
63032;SDS011;49121;38.932;-9.018;2023-03-23T06:42:25;10.43;;;2.40;;
63032;SDS011;49121;38.932;-9.018;2023-03-23T06:44:43;8.27;;;2.33;;
63032;SDS011;49121;38.932;-9.018;2023-03-23T06:46:46;10.57;;;2.42;;
63032;SDS011;49121;38.932;-9.018;2023-03-23T06:49:05;8.38;;;2.40;;
63032;SDS011;49121;38.932;-9.018;2023-03-23T06:51:17;9.45;;;2.70;;
63032;SDS011;49121;38.932;-9.018;2023-03-23T06:53:22;7.22;;;2.03;;
63032;SDS011;49121;38.932;-9.018;2023-03-23T06:55:25;11.27;;;2.13;;
63032;SDS011;49121;38.932;-9.018;2023-03-23T06:57:27;8.32;;;2.30;;
63032;SDS011;49121;38.932;-9.018;2023-03-23T06:59:29;8.15;;;2.40;;
63032;SDS011;49121;38.932;-9.018;2023-03-23T07:01:30;12.90;;;3.13;;
63032;SDS011;49121;38.932;-9.018;2023-03-23T07:03:34;10.82;;;2.70;;
63032;SDS011;49121;38.932;-9.018;2023-03-23T07:05:53;12.43;;;2.25;;
63032;SDS011;49121;38.932;-9.018;2023-03-23T07:07:57;7.03;;;2.80;;
63032;SDS011;49121;38.932;-9.018;2023-03-23T07:10:15;6.20;;;2.47;;
63032;SDS011;49121;38.932;-9.018;2023-03-23T07:14:20;13.45;;;2.60;;
63032;SDS011;49121;38.932;-9.018;2023-03-23T07:16:22;4.65;;;2.42;;
63032;SDS011;49121;38.932;-9.018;2023-03-23T07:18:26;9.93;;;2.83;;
63032;SDS011;49121;38.932;-9.018;2023-03-23T07:20:29;3.67;;;2.30;;
63032;SDS011;49121;38.932;-9.018;2023-03-23T07:22:30;8.75;;;2.50;;
63032;SDS011;49121;38.932;-9.018;2023-03-23T07:24:49;7.97;;;3.22;;
63032;SDS011;49121;38.932;-9.018;2023-03-23T07:27:19;6.15;;;2.53;;
63032;SDS011;49121;38.932;-9.018;2023-03-23T07:29:21;6.00;;;2.80;;
63032;SDS011;49121;38.932;-9.018;2023-03-23T07:31:30;6.75;;;2.90;;
63032;SDS011;49121;38.932;-9.018;2023-03-23T07:35:32;11.18;;;3.17;;
63032;SDS011;49121;38.932;-9.018;2023-03-23T07:37:37;10.07;;;3.22;;
63032;SDS011;49121;38.932;-9.018;2023-03-23T07:41:40;8.95;;;3.65;;
63032;SDS011;49121;38.932;-9.018;2023-03-23T07:43:50;9.88;;;4.70;;
63032;SDS011;49121;38.932;-9.018;2023-03-23T07:46:04;8.60;;;4.70;;
63032;SDS011;49121;38.932;-9.018;2023-03-23T07:48:42;9.77;;;5.32;;
63032;SDS011;49121;38.932;-9.018;2023-03-23T07:50:43;11.52;;;5.00;;
63032;SDS011;49121;38.932;-9.018;2023-03-23T07:52:46;10.85;;;4.80;;
63032;SDS011;49121;38.932;-9.018;2023-03-23T07:54:51;11.00;;;5.25;;
63032;SDS011;49121;38.932;-9.018;2023-03-23T07:57:12;14.55;;;5.00;;
63032;SDS011;49121;38.932;-9.018;2023-03-23T07:59:21;11.52;;;5.00;;
63032;SDS011;49121;38.932;-9.018;2023-03-23T08:01:22;11.43;;;5.40;;
63032;SDS011;49121;38.932;-9.018;2023-03-23T08:03:43;11.80;;;5.75;;
63032;SDS011;49121;38.932;-9.018;2023-03-23T08:06:09;16.30;;;5.82;;
63032;SDS011;49121;38.932;-9.018;2023-03-23T08:08:44;10.52;;;5.78;;
63032;SDS011;49121;38.932;-9.018;2023-03-23T08:11:04;11.30;;;5.45;;
63032;SDS011;49121;38.932;-9.018;2023-03-23T08:13:14;17.02;;;5.82;;
63032;SDS011;49121;38.932;-9.018;2023-03-23T08:15:44;16.92;;;5.88;;
63032;SDS011;49121;38.932;-9.018;2023-03-23T08:18:01;20.83;;;6.97;;
63032;SDS011;49121;38.932;-9.018;2023-03-23T08:20:25;18.30;;;5.45;;
63032;SDS011;49121;38.932;-9.018;2023-03-23T08:22:58;12.70;;;5.75;;
63032;SDS011;49121;38.932;-9.018;2023-03-23T08:25:18;13.32;;;5.25;;
63032;SDS011;49121;38.932;-9.018;2023-03-23T08:27:38;13.45;;;6.43;;
63032;SDS011;49121;38.932;-9.018;2023-03-23T08:30:09;17.05;;;6.35;;
63032;SDS011;49121;38.932;-9.018;2023-03-23T08:32:15;18.02;;;6.15;;
63032;SDS011;49121;38.932;-9.018;2023-03-23T08:34:35;12.63;;;6.88;;
63032;SDS011;49121;38.932;-9.018;2023-03-23T08:36:54;13.68;;;5.68;;
63032;SDS011;49121;38.932;-9.018;2023-03-23T08:39:16;18.27;;;8.32;;
63032;SDS011;49121;38.932;-9.018;2023-03-23T08:41:34;13.88;;;5.32;;
63032;SDS011;49121;38.932;-9.018;2023-03-23T08:43:48;13.98;;;5.13;;
63032;SDS011;49121;38.932;-9.018;2023-03-23T08:46:09;15.13;;;6.07;;
63032;SDS011;49121;38.932;-9.018;2023-03-23T08:48:31;13.98;;;5.65;;
63032;SDS011;49121;38.932;-9.018;2023-03-23T08:50:53;16.95;;;6.30;;
63032;SDS011;49121;38.932;-9.018;2023-03-23T08:53:08;12.55;;;6.10;;
63032;SDS011;49121;38.932;-9.018;2023-03-23T08:55:15;14.65;;;7.47;;
63032;SDS011;49121;38.932;-9.018;2023-03-23T08:57:27;18.85;;;6.82;;
63032;SDS011;49121;38.932;-9.018;2023-03-23T08:59:42;15.48;;;6.40;;
63032;SDS011;49121;38.932;-9.018;2023-03-23T09:02:02;21.60;;;7.60;;
63032;SDS011;49121;38.932;-9.018;2023-03-23T09:04:35;20.73;;;6.82;;
63032;SDS011;49121;38.932;-9.018;2023-03-23T09:06:55;16.27;;;7.32;;
63032;SDS011;49121;38.932;-9.018;2023-03-23T09:08:58;19.33;;;8.57;;
63032;SDS011;49121;38.932;-9.018;2023-03-23T09:11:01;12.57;;;6.60;;
63032;SDS011;49121;38.932;-9.018;2023-03-23T09:13:03;16.15;;;6.95;;
63032;SDS011;49121;38.932;-9.018;2023-03-23T09:15:05;15.30;;;6.10;;
63032;SDS011;49121;38.932;-9.018;2023-03-23T09:17:09;13.10;;;6.03;;
63032;SDS011;49121;38.932;-9.018;2023-03-23T09:19:10;14.27;;;7.85;;
63032;SDS011;49121;38.932;-9.018;2023-03-23T09:21:12;18.58;;;8.82;;
63032;SDS011;49121;38.932;-9.018;2023-03-23T09:23:13;15.25;;;6.72;;
63032;SDS011;49121;38.932;-9.018;2023-03-23T09:25:16;19.58;;;7.15;;
63032;SDS011;49121;38.932;-9.018;2023-03-23T09:27:21;16.80;;;6.22;;
63032;SDS011;49121;38.932;-9.018;2023-03-23T09:29:22;19.00;;;6.70;;
63032;SDS011;49121;38.932;-9.018;2023-03-23T09:31:26;17.13;;;8.13;;
63032;SDS011;49121;38.932;-9.018;2023-03-23T09:33:46;15.82;;;6.57;;
63032;SDS011;49121;38.932;-9.018;2023-03-23T09:35:47;9.32;;;5.93;;
63032;SDS011;49121;38.932;-9.018;2023-03-23T09:37:49;15.77;;;7.10;;
63032;SDS011;49121;38.932;-9.018;2023-03-23T09:39:51;18.00;;;7.20;;
63032;SDS011;49121;38.932;-9.018;2023-03-23T09:42:00;18.67;;;8.30;;
63032;SDS011;49121;38.932;-9.018;2023-03-23T09:47:21;17.70;;;6.80;;
63032;SDS011;49121;38.932;-9.018;2023-03-23T09:52:02;28.88;;;11.25;;
63032;SDS011;49121;38.932;-9.018;2023-03-23T09:54:11;20.38;;;9.45;;
63032;SDS011;49121;38.932;-9.018;2023-03-23T09:56:29;17.15;;;7.57;;
63032;SDS011;49121;38.932;-9.018;2023-03-23T09:58:35;16.08;;;7.65;;
63032;SDS011;49121;38.932;-9.018;2023-03-23T10:00:46;18.23;;;7.82;;
63032;SDS011;49121;38.932;-9.018;2023-03-23T10:03:13;16.45;;;7.57;;
63032;SDS011;49121;38.932;-9.018;2023-03-23T10:07:41;16.58;;;6.75;;
63032;SDS011;49121;38.932;-9.018;2023-03-23T10:09:42;16.30;;;6.57;;
63032;SDS011;49121;38.932;-9.018;2023-03-23T10:16:15;10.18;;;4.05;;
63032;SDS011;49121;38.932;-9.018;2023-03-23T10:18:30;12.43;;;4.95;;
63032;SDS011;49121;38.932;-9.018;2023-03-23T10:22:47;15.60;;;8.00;;
63032;SDS011;49121;38.932;-9.018;2023-03-23T10:27:33;9.68;;;3.90;;
63032;SDS011;49121;38.932;-9.018;2023-03-23T10:29:47;9.15;;;3.60;;
63032;SDS011;49121;38.932;-9.018;2023-03-23T10:32:15;10.07;;;3.28;;
63032;SDS011;49121;38.932;-9.018;2023-03-23T10:34:35;9.20;;;2.72;;
63032;SDS011;49121;38.932;-9.018;2023-03-23T10:39:10;7.40;;;2.72;;
63032;SDS011;49121;38.932;-9.018;2023-03-23T10:41:19;13.48;;;2.95;;
63032;SDS011;49121;38.932;-9.018;2023-03-23T10:43:21;13.05;;;3.88;;
63032;SDS011;49121;38.932;-9.018;2023-03-23T10:45:25;12.45;;;3.63;;
63032;SDS011;49121;38.932;-9.018;2023-03-23T10:47:32;7.10;;;2.42;;
63032;SDS011;49121;38.932;-9.018;2023-03-23T10:49:43;10.30;;;3.92;;
63032;SDS011;49121;38.932;-9.018;2023-03-23T10:52:01;12.95;;;3.70;;
63032;SDS011;49121;38.932;-9.018;2023-03-23T10:54:09;18.30;;;6.50;;
63032;SDS011;49121;38.932;-9.018;2023-03-23T10:56:23;23.23;;;10.13;;
63032;SDS011;49121;38.932;-9.018;2023-03-23T10:58:33;18.38;;;6.63;;
63032;SDS011;49121;38.932;-9.018;2023-03-23T11:00:42;10.45;;;2.47;;
63032;SDS011;49121;38.932;-9.018;2023-03-23T11:02:46;12.25;;;3.00;;
63032;SDS011;49121;38.932;-9.018;2023-03-23T11:07:19;13.20;;;3.28;;
63032;SDS011;49121;38.932;-9.018;2023-03-23T11:09:36;7.18;;;2.33;;
63032;SDS011;49121;38.932;-9.018;2023-03-23T11:11:39;7.20;;;2.30;;
63032;SDS011;49121;38.932;-9.018;2023-03-23T11:13:47;10.82;;;2.47;;
63032;SDS011;49121;38.932;-9.018;2023-03-23T11:15:52;14.75;;;2.75;;
63032;SDS011;49121;38.932;-9.018;2023-03-23T11:17:57;10.57;;;3.60;;
63032;SDS011;49121;38.932;-9.018;2023-03-23T11:20:11;15.50;;;2.38;;
63032;SDS011;49121;38.932;-9.018;2023-03-23T11:22:25;5.63;;;2.53;;
63032;SDS011;49121;38.932;-9.018;2023-03-23T11:24:28;11.63;;;2.47;;
63032;SDS011;49121;38.932;-9.018;2023-03-23T11:26:33;12.50;;;2.25;;
63032;SDS011;49121;38.932;-9.018;2023-03-23T11:28:42;19.80;;;3.20;;
63032;SDS011;49121;38.932;-9.018;2023-03-23T11:30:50;7.78;;;2.10;;
63032;SDS011;49121;38.932;-9.018;2023-03-23T11:32:55;12.38;;;1.98;;
63032;SDS011;49121;38.932;-9.018;2023-03-23T11:37:42;10.63;;;1.80;;
63032;SDS011;49121;38.932;-9.018;2023-03-23T11:40:23;9.73;;;2.15;;
63032;SDS011;49121;38.932;-9.018;2023-03-23T11:42:34;11.10;;;2.45;;
63032;SDS011;49121;38.932;-9.018;2023-03-23T11:47:24;10.20;;;2.10;;
63032;SDS011;49121;38.932;-9.018;2023-03-23T11:54:09;10.98;;;4.45;;
63032;SDS011;49121;38.932;-9.018;2023-03-23T11:58:25;11.27;;;2.63;;
63032;SDS011;49121;38.932;-9.018;2023-03-23T12:00:32;35.17;;;16.30;;
63032;SDS011;49121;38.932;-9.018;2023-03-23T12:02:36;15.90;;;3.08;;
63032;SDS011;49121;38.932;-9.018;2023-03-23T12:11:49;9.07;;;1.63;;
63032;SDS011;49121;38.932;-9.018;2023-03-23T12:14:02;7.35;;;1.60;;
63032;SDS011;49121;38.932;-9.018;2023-03-23T12:18:52;8.07;;;1.52;;
63032;SDS011;49121;38.932;-9.018;2023-03-23T12:23:38;11.57;;;2.03;;
63032;SDS011;49121;38.932;-9.018;2023-03-23T12:25:58;6.43;;;1.70;;
63032;SDS011;49121;38.932;-9.018;2023-03-23T12:28:37;15.88;;;3.22;;
63032;SDS011;49121;38.932;-9.018;2023-03-23T12:33:21;7.90;;;1.83;;
63032;SDS011;49121;38.932;-9.018;2023-03-23T12:40:26;6.63;;;1.38;;
63032;SDS011;49121;38.932;-9.018;2023-03-23T12:44:54;7.38;;;1.45;;
63032;SDS011;49121;38.932;-9.018;2023-03-23T12:52:23;8.52;;;1.90;;
63032;SDS011;49121;38.932;-9.018;2023-03-23T13:04:17;5.70;;;1.67;;
63032;SDS011;49121;38.932;-9.018;2023-03-23T13:08:41;4.35;;;1.00;;
63032;SDS011;49121;38.932;-9.018;2023-03-23T13:11:08;8.40;;;1.42;;
63032;SDS011;49121;38.932;-9.018;2023-03-23T13:13:25;11.05;;;1.27;;
63032;SDS011;49121;38.932;-9.018;2023-03-23T13:24:38;10.02;;;1.83;;
63032;SDS011;49121;38.932;-9.018;2023-03-23T13:26:43;8.05;;;1.30;;
63032;SDS011;49121;38.932;-9.018;2023-03-23T13:31:14;8.65;;;2.08;;
63032;SDS011;49121;38.932;-9.018;2023-03-23T13:33:17;9.20;;;1.83;;
63032;SDS011;49121;38.932;-9.018;2023-03-23T13:35:18;3.80;;;1.20;;
63032;SDS011;49121;38.932;-9.018;2023-03-23T13:37:25;10.80;;;2.05;;
63032;SDS011;49121;38.932;-9.018;2023-03-23T13:39:37;7.57;;;2.30;;
63032;SDS011;49121;38.932;-9.018;2023-03-23T13:44:20;6.07;;;1.38;;
63032;SDS011;49121;38.932;-9.018;2023-03-23T13:46:28;6.78;;;1.70;;
63032;SDS011;49121;38.932;-9.018;2023-03-23T13:48:39;7.57;;;1.48;;
63032;SDS011;49121;38.932;-9.018;2023-03-23T13:50:58;5.03;;;1.75;;
63032;SDS011;49121;38.932;-9.018;2023-03-23T13:53:01;5.20;;;1.27;;
63032;SDS011;49121;38.932;-9.018;2023-03-23T13:57:23;6.70;;;1.98;;
63032;SDS011;49121;38.932;-9.018;2023-03-23T13:59:48;6.38;;;1.90;;
63032;SDS011;49121;38.932;-9.018;2023-03-23T14:01:56;9.55;;;1.33;;
63032;SDS011;49121;38.932;-9.018;2023-03-23T14:04:17;7.63;;;1.35;;
63032;SDS011;49121;38.932;-9.018;2023-03-23T14:06:20;6.40;;;1.23;;
63032;SDS011;49121;38.932;-9.018;2023-03-23T14:08:37;6.72;;;1.15;;
63032;SDS011;49121;38.932;-9.018;2023-03-23T14:10:43;5.38;;;1.20;;
63032;SDS011;49121;38.932;-9.018;2023-03-23T14:12:50;4.53;;;1.27;;
63032;SDS011;49121;38.932;-9.018;2023-03-23T14:14:58;9.15;;;1.33;;
63032;SDS011;49121;38.932;-9.018;2023-03-23T14:17:06;6.43;;;1.42;;
63032;SDS011;49121;38.932;-9.018;2023-03-23T14:19:27;6.55;;;1.38;;
63032;SDS011;49121;38.932;-9.018;2023-03-23T14:23:39;4.85;;;1.50;;
63032;SDS011;49121;38.932;-9.018;2023-03-23T14:25:41;6.88;;;1.20;;
63032;SDS011;49121;38.932;-9.018;2023-03-23T14:27:43;6.93;;;1.33;;
63032;SDS011;49121;38.932;-9.018;2023-03-23T14:30:00;9.43;;;1.60;;
63032;SDS011;49121;38.932;-9.018;2023-03-23T14:32:04;8.38;;;1.60;;
63032;SDS011;49121;38.932;-9.018;2023-03-23T14:34:13;7.78;;;1.30;;
63032;SDS011;49121;38.932;-9.018;2023-03-23T14:36:20;8.57;;;1.30;;
63032;SDS011;49121;38.932;-9.018;2023-03-23T14:38:26;4.78;;;1.00;;
63032;SDS011;49121;38.932;-9.018;2023-03-23T14:40:31;5.13;;;1.58;;
63032;SDS011;49121;38.932;-9.018;2023-03-23T14:42:34;9.82;;;2.13;;
63032;SDS011;49121;38.932;-9.018;2023-03-23T14:44:38;5.75;;;1.20;;
63032;SDS011;49121;38.932;-9.018;2023-03-23T14:46:41;9.95;;;1.13;;
63032;SDS011;49121;38.932;-9.018;2023-03-23T14:48:45;5.07;;;1.10;;
63032;SDS011;49121;38.932;-9.018;2023-03-23T14:50:50;9.02;;;1.45;;
63032;SDS011;49121;38.932;-9.018;2023-03-23T14:52:56;8.13;;;1.40;;
63032;SDS011;49121;38.932;-9.018;2023-03-23T14:57:27;4.28;;;1.17;;
63032;SDS011;49121;38.932;-9.018;2023-03-23T14:59:30;6.28;;;1.05;;
63032;SDS011;49121;38.932;-9.018;2023-03-23T15:01:31;6.47;;;1.20;;
63032;SDS011;49121;38.932;-9.018;2023-03-23T15:03:35;5.38;;;1.35;;
63032;SDS011;49121;38.932;-9.018;2023-03-23T15:05:50;5.95;;;1.60;;
63032;SDS011;49121;38.932;-9.018;2023-03-23T15:07:55;7.97;;;0.95;;